createdAt,value
2023-05-14T00:02:20.434Z,99.90
2023-05-14T00:05:06.071Z,99.90
2023-05-14T00:07:51.509Z,99.90
2023-05-14T00:10:37.236Z,99.90
2023-05-14T00:13:22.850Z,99.90
2023-05-14T00:16:08.437Z,99.90
2023-05-14T00:18:54.074Z,99.90
2023-05-14T00:21:39.683Z,99.90
2023-05-14T00:24:25.402Z,99.90
2023-05-14T00:27:11.530Z,99.90
2023-05-14T00:29:58.736Z,99.90
2023-05-14T00:32:44.408Z,99.90
2023-05-14T00:35:29.843Z,99.90
2023-05-14T00:38:17.092Z,99.90
2023-05-14T00:41:02.827Z,99.90
2023-05-14T00:43:48.236Z,99.90
2023-05-14T00:46:33.925Z,99.90
2023-05-14T00:49:19.443Z,99.90
2023-05-14T00:52:05.127Z,99.90
2023-05-14T00:54:50.481Z,99.90
2023-05-14T00:57:36.453Z,99.90
2023-05-14T01:00:22.255Z,99.90
2023-05-14T01:03:08.564Z,99.90
2023-05-14T01:06:01.543Z,99.90
2023-05-14T01:08:53.634Z,99.90
2023-05-14T01:11:59.850Z,99.90
2023-05-14T01:15:07.067Z,99.90
2023-05-14T01:17:55.621Z,99.90
2023-05-14T01:20:40.966Z,99.90
2023-05-14T01:23:26.616Z,99.90
2023-05-14T01:26:12.302Z,99.90
2023-05-14T01:29:03.993Z,99.90
2023-05-14T01:31:50.881Z,99.90
2023-05-14T01:34:36.829Z,99.90
2023-05-14T01:37:22.616Z,99.90
2023-05-14T01:40:09.682Z,99.90
2023-05-14T01:42:56.510Z,99.90
2023-05-14T01:45:42.615Z,99.90
2023-05-14T01:48:29.951Z,99.90
2023-05-14T01:51:15.387Z,99.90
2023-05-14T01:54:00.823Z,99.90
2023-05-14T01:56:46.149Z,99.90
2023-05-14T01:59:31.839Z,99.90
2023-05-14T02:02:17.358Z,99.90
2023-05-14T02:05:03.910Z,99.90
2023-05-14T02:07:51.375Z,99.90
2023-05-14T02:10:36.717Z,99.90
2023-05-14T02:13:22.448Z,99.90
2023-05-14T02:16:08.296Z,99.90
2023-05-14T02:18:53.529Z,99.90
2023-05-14T02:21:39.087Z,99.90
2023-05-14T02:24:24.663Z,99.90
2023-05-14T02:27:12.702Z,99.90
2023-05-14T02:30:00.840Z,99.90
2023-05-14T02:32:46.523Z,99.90
2023-05-14T02:35:32.076Z,99.90
2023-05-14T02:38:18.726Z,99.90
2023-05-14T02:41:04.377Z,99.90
2023-05-14T02:43:57.911Z,99.90
2023-05-14T02:46:44.099Z,99.90
2023-05-14T02:49:29.474Z,99.90
2023-05-14T02:52:15.008Z,99.90
2023-05-14T02:55:00.788Z,99.90
2023-05-14T02:57:46.721Z,99.90
2023-05-14T03:00:32.417Z,99.90
2023-05-14T03:03:19.192Z,99.90
2023-05-14T03:06:05.450Z,99.90
2023-05-14T03:08:50.753Z,99.90
2023-05-14T03:11:36.511Z,99.90
2023-05-14T03:14:22.082Z,99.90
2023-05-14T03:17:07.735Z,99.90
2023-05-14T03:19:53.261Z,99.90
2023-05-14T03:22:38.834Z,99.90
2023-05-14T03:25:24.489Z,99.90
2023-05-14T03:28:10.089Z,99.90
2023-05-14T03:30:55.809Z,99.90
2023-05-14T03:33:41.487Z,99.90
2023-05-14T03:36:27.050Z,99.90
2023-05-14T03:39:15.506Z,99.90
2023-05-14T03:42:00.956Z,99.90
2023-05-14T03:44:46.317Z,99.90
2023-05-14T03:47:32.067Z,99.90
2023-05-14T03:50:19.215Z,99.90
2023-05-14T03:53:04.951Z,99.90
2023-05-14T03:55:50.789Z,99.90
2023-05-14T03:58:36.040Z,99.90
2023-05-14T04:01:21.939Z,99.90
2023-05-14T04:04:07.367Z,99.90
2023-05-14T04:06:53.806Z,99.90
2023-05-14T04:09:39.454Z,99.90
2023-05-14T04:12:26.709Z,99.90
2023-05-14T04:15:12.816Z,99.90
2023-05-14T04:17:58.307Z,99.90
2023-05-14T04:20:43.903Z,99.90
2023-05-14T04:23:29.432Z,99.90
2023-05-14T04:26:14.870Z,99.90
2023-05-14T04:29:02.972Z,99.90
2023-05-14T04:31:51.722Z,99.90
2023-05-14T04:34:37.195Z,99.90
2023-05-14T04:37:23.044Z,99.90
2023-05-14T04:40:09.055Z,99.90
2023-05-14T04:42:54.570Z,99.90
2023-05-14T04:45:41.135Z,99.90
2023-05-14T04:48:26.889Z,99.90
2023-05-14T04:51:12.551Z,99.90
2023-05-14T04:53:58.414Z,99.90
2023-05-14T04:56:43.842Z,99.90
2023-05-14T04:59:30.136Z,99.90
2023-05-14T05:02:15.506Z,99.90
2023-05-14T05:05:01.316Z,99.90
2023-05-14T05:07:46.721Z,99.90
2023-05-14T05:10:32.258Z,99.90
2023-05-14T05:13:17.805Z,99.90
2023-05-14T05:16:03.768Z,99.90
2023-05-14T05:18:49.196Z,99.90
2023-05-14T05:21:35.266Z,99.90
2023-05-14T05:24:20.948Z,99.90
2023-05-14T05:27:06.484Z,99.90
2023-05-14T05:29:52.381Z,99.90
2023-05-14T05:32:37.969Z,99.90
2023-05-14T05:35:23.628Z,99.90
2023-05-14T05:38:09.283Z,99.90
2023-05-14T05:40:54.960Z,99.90
2023-05-14T05:43:40.872Z,99.90
2023-05-14T05:46:26.509Z,99.90
2023-05-14T05:49:12.162Z,99.90
2023-05-14T05:51:57.903Z,99.90
2023-05-14T05:54:43.440Z,99.90
2023-05-14T05:57:29.124Z,99.90
2023-05-14T06:00:15.283Z,99.90
2023-05-14T06:03:01.095Z,99.90
2023-05-14T06:05:46.842Z,99.90
2023-05-14T06:08:32.625Z,99.90
2023-05-14T06:11:18.285Z,99.90
2023-05-14T06:14:04.629Z,99.90
2023-05-14T06:16:49.980Z,99.90
2023-05-14T06:19:35.686Z,99.90
2023-05-14T06:22:21.243Z,99.90
2023-05-14T06:25:07.242Z,99.90
2023-05-14T06:27:52.502Z,99.90
2023-05-14T06:30:38.227Z,99.90
2023-05-14T06:33:30.742Z,99.90
2023-05-14T06:36:16.254Z,99.90
2023-05-14T06:39:01.881Z,99.90
2023-05-14T06:41:47.610Z,99.90
2023-05-14T06:44:34.050Z,99.90
2023-05-14T06:47:19.831Z,99.90
2023-05-14T06:50:05.800Z,99.90
2023-05-14T06:52:51.040Z,99.90
2023-05-14T06:55:36.879Z,99.90
2023-05-14T06:58:22.537Z,99.90
2023-05-14T07:01:08.199Z,99.90
2023-05-14T07:03:53.852Z,99.90
2023-05-14T07:06:40.105Z,99.90
2023-05-14T07:09:25.663Z,99.90
2023-05-14T07:12:11.352Z,99.90
2023-05-14T07:14:57.665Z,99.90
2023-05-14T07:17:43.199Z,99.90
2023-05-14T07:20:28.735Z,99.90
2023-05-14T07:23:14.286Z,99.90
2023-05-14T07:25:59.848Z,99.90
2023-05-14T07:28:45.280Z,99.90
2023-05-14T07:31:30.967Z,99.90
2023-05-14T07:34:16.808Z,99.90
2023-05-14T07:37:02.610Z,99.90
2023-05-14T07:39:48.449Z,99.90
2023-05-14T07:42:36.377Z,99.90
2023-05-14T07:45:22.961Z,99.90
2023-05-14T07:48:08.923Z,99.90
2023-05-14T07:50:54.279Z,99.90
2023-05-14T07:53:39.927Z,99.90
2023-05-14T07:56:25.784Z,99.90
2023-05-14T07:59:11.129Z,99.90
2023-05-14T08:01:56.785Z,99.90
2023-05-14T08:04:42.340Z,99.90
2023-05-14T08:07:30.083Z,99.90
2023-05-14T08:10:15.686Z,99.90
2023-05-14T08:13:01.324Z,99.90
2023-05-14T08:15:47.354Z,99.90
2023-05-14T08:18:32.743Z,99.90
2023-05-14T08:21:18.298Z,99.90
2023-05-14T08:24:04.086Z,99.90
2023-05-14T08:26:49.365Z,99.90
2023-05-14T08:29:35.175Z,99.90
2023-05-14T08:32:23.766Z,99.90
2023-05-14T08:35:09.811Z,99.90
2023-05-14T08:37:56.953Z,99.90
2023-05-14T08:40:42.522Z,99.90
2023-05-14T08:43:30.996Z,99.90
2023-05-14T08:46:17.524Z,99.90
2023-05-14T08:49:08.942Z,99.90
2023-05-14T08:51:54.193Z,99.90
2023-05-14T08:54:40.404Z,99.90
2023-05-14T08:57:26.613Z,99.90
2023-05-14T09:00:12.593Z,99.90
2023-05-14T09:02:59.070Z,99.90
2023-05-14T09:05:45.734Z,99.90
2023-05-14T09:08:31.417Z,99.90
2023-05-14T09:11:16.841Z,99.90
2023-05-14T09:14:02.581Z,99.90
2023-05-14T09:16:49.674Z,99.90
2023-05-14T09:19:35.111Z,99.90
2023-05-14T09:22:20.870Z,99.90
2023-05-14T09:25:07.386Z,99.90
2023-05-14T09:27:55.360Z,99.90
2023-05-14T09:30:42.024Z,99.90
2023-05-14T09:33:28.423Z,99.90
2023-05-14T09:36:13.853Z,99.90
2023-05-14T09:39:00.330Z,99.90
2023-05-14T09:41:46.575Z,99.90
2023-05-14T09:44:32.572Z,99.90
2023-05-14T09:47:18.078Z,99.90
2023-05-14T09:50:04.194Z,99.90
2023-05-14T09:52:49.957Z,99.90
2023-05-14T09:55:36.538Z,99.90
2023-05-14T09:58:22.258Z,99.90
2023-05-14T10:01:08.331Z,99.90
2023-05-14T10:03:54.973Z,99.90
2023-05-14T10:06:42.518Z,99.90
2023-05-14T10:09:29.811Z,99.90
2023-05-14T10:12:16.625Z,99.90
2023-05-14T10:15:04.858Z,99.00
2023-05-14T10:17:53.565Z,99.90
2023-05-14T10:20:41.045Z,99.90
2023-05-14T10:23:26.733Z,99.90
2023-05-14T10:26:12.490Z,99.90
2023-05-14T10:28:58.559Z,99.70
2023-05-14T10:31:50.638Z,98.70
2023-05-14T10:34:46.408Z,98.40
2023-05-14T10:37:32.767Z,98.10
2023-05-14T10:40:19.324Z,98.10
2023-05-14T10:43:05.651Z,96.20
2023-05-14T10:45:51.917Z,96.40
2023-05-14T10:48:37.980Z,93.20
2023-05-14T10:51:23.400Z,95.00
2023-05-14T10:54:08.938Z,94.70
2023-05-14T10:56:58.406Z,94.10
2023-05-14T10:59:43.695Z,94.80
2023-05-14T11:02:33.732Z,94.40
2023-05-14T11:05:19.200Z,94.10
2023-05-14T11:08:06.414Z,93.70
2023-05-14T11:10:52.257Z,93.90
2023-05-14T11:13:38.475Z,92.10
2023-05-14T11:16:26.376Z,93.20
2023-05-14T11:19:12.146Z,93.30
2023-05-14T11:21:57.814Z,92.60
2023-05-14T11:24:43.359Z,92.20
2023-05-14T11:27:29.593Z,92.50
2023-05-14T11:30:16.244Z,91.80
2023-05-14T11:33:02.287Z,92.90
2023-05-14T11:35:48.479Z,92.30
2023-05-14T11:38:33.923Z,93.20
2023-05-14T11:41:21.630Z,92.80
2023-05-14T11:44:09.042Z,92.90
2023-05-14T11:46:55.594Z,91.10
2023-05-14T11:49:41.065Z,90.80
2023-05-14T11:52:26.513Z,90.70
2023-05-14T11:55:12.697Z,91.10
2023-05-14T11:57:58.102Z,91.80
2023-05-14T12:00:44.718Z,91.00
2023-05-14T12:03:30.955Z,91.50
2023-05-14T12:06:16.433Z,90.70
2023-05-14T12:09:04.720Z,90.90
2023-05-14T12:11:51.190Z,91.20
2023-05-14T12:14:41.706Z,91.80
2023-05-14T12:17:27.216Z,92.00
2023-05-14T12:20:12.860Z,90.00
2023-05-14T12:22:58.138Z,90.40
2023-05-14T12:25:51.377Z,90.30
2023-05-14T12:28:39.014Z,90.20
2023-05-14T12:31:31.044Z,90.40
2023-05-14T12:34:17.040Z,91.00
2023-05-14T12:37:03.014Z,90.60
2023-05-14T12:39:48.559Z,90.40
2023-05-14T12:42:33.745Z,90.30
2023-05-14T12:45:19.524Z,90.40
2023-05-14T12:48:05.148Z,90.50
2023-05-14T12:50:50.348Z,91.00
2023-05-14T12:53:35.942Z,90.60
2023-05-14T12:56:22.007Z,91.20
2023-05-14T12:59:09.455Z,91.10
2023-05-14T13:01:54.778Z,91.40
2023-05-14T13:04:41.458Z,91.20
2023-05-14T13:07:27.053Z,91.50
2023-05-14T13:10:12.785Z,91.70
2023-05-14T13:12:58.258Z,90.90
2023-05-14T13:15:46.677Z,91.40
2023-05-14T13:18:32.276Z,89.80
2023-05-14T13:21:17.938Z,91.00
2023-05-14T13:24:03.688Z,90.80
2023-05-14T13:26:49.065Z,91.10
2023-05-14T13:29:34.789Z,90.20
2023-05-14T13:32:20.563Z,90.00
2023-05-14T13:35:07.763Z,89.50
2023-05-14T13:37:53.112Z,90.20
2023-05-14T13:40:38.720Z,90.80
2023-05-14T13:43:24.482Z,90.10
2023-05-14T13:46:10.084Z,90.60
2023-05-14T13:48:55.957Z,88.90
2023-05-14T13:51:41.610Z,88.10
2023-05-14T13:54:27.044Z,88.50
2023-05-14T13:57:12.710Z,89.30
2023-05-14T13:59:58.500Z,88.40
2023-05-14T14:02:44.164Z,88.10
2023-05-14T14:05:30.057Z,87.90
2023-05-14T14:08:23.559Z,88.90
2023-05-14T14:11:09.863Z,87.70
2023-05-14T14:13:55.494Z,87.90
2023-05-14T14:16:41.166Z,88.00
2023-05-14T14:19:26.704Z,88.10
2023-05-14T14:22:14.034Z,87.50
2023-05-14T14:24:59.418Z,87.20
2023-05-14T14:27:47.363Z,87.20
2023-05-14T14:30:33.128Z,90.10
2023-05-14T14:33:18.499Z,88.60
2023-05-14T14:36:04.254Z,84.90
2023-05-14T14:38:49.589Z,85.10
2023-05-14T14:41:35.182Z,84.30
2023-05-14T14:44:21.098Z,83.90
2023-05-14T14:47:06.820Z,83.50
2023-05-14T14:49:52.600Z,83.80
2023-05-14T14:52:39.180Z,83.40
2023-05-14T14:55:24.783Z,87.00
2023-05-14T14:58:10.070Z,86.60
2023-05-14T15:00:56.643Z,85.40
2023-05-14T15:03:42.736Z,83.60
2023-05-14T15:06:28.164Z,82.30
2023-05-14T15:09:13.573Z,81.20
2023-05-14T15:11:59.374Z,80.40
2023-05-14T15:14:45.250Z,79.40
2023-05-14T15:17:31.041Z,78.90
2023-05-14T15:20:16.754Z,78.70
2023-05-14T15:23:02.731Z,78.40
2023-05-14T15:25:49.439Z,75.30
2023-05-14T15:28:35.170Z,76.30
2023-05-14T15:31:21.052Z,75.30
2023-05-14T15:34:07.060Z,73.60
2023-05-14T15:36:52.870Z,74.20
2023-05-14T15:39:38.523Z,74.10
2023-05-14T15:42:24.039Z,74.30
2023-05-14T15:45:10.615Z,75.60
2023-05-14T15:47:56.159Z,76.80
2023-05-14T15:50:42.271Z,78.40
2023-05-14T15:53:28.014Z,78.70
2023-05-14T15:56:13.409Z,79.50
2023-05-14T15:58:59.112Z,80.00
2023-05-14T16:01:44.789Z,80.20
2023-05-14T16:04:30.597Z,80.10
2023-05-14T16:07:16.113Z,79.90
2023-05-14T16:10:01.483Z,80.50
2023-05-14T16:12:47.138Z,81.60
2023-05-14T16:15:32.934Z,81.20
2023-05-14T16:18:18.314Z,79.60
2023-05-14T16:21:04.057Z,81.00
2023-05-14T16:23:49.725Z,82.00
2023-05-14T16:26:35.356Z,82.80
2023-05-14T16:29:20.960Z,82.40
2023-05-14T16:32:06.841Z,81.60
2023-05-14T16:34:52.589Z,82.80
2023-05-14T16:37:38.228Z,83.00
2023-05-14T16:40:24.294Z,83.30
2023-05-14T16:43:09.947Z,83.40
2023-05-14T16:45:55.889Z,83.20
2023-05-14T16:48:42.435Z,83.30
2023-05-14T16:51:28.619Z,82.60
2023-05-14T16:54:14.403Z,83.60
2023-05-14T16:56:59.608Z,83.70
2023-05-14T16:59:45.546Z,83.30
2023-05-14T17:02:31.145Z,83.10
2023-05-14T17:05:16.886Z,84.00
2023-05-14T17:08:02.466Z,84.00
2023-05-14T17:10:48.145Z,82.90
2023-05-14T17:13:34.081Z,82.70
2023-05-14T17:16:22.022Z,82.40
2023-05-14T17:19:07.503Z,83.90
2023-05-14T17:21:53.200Z,83.40
2023-05-14T17:24:39.145Z,82.40
2023-05-14T17:27:24.547Z,83.20
2023-05-14T17:30:10.470Z,83.00
2023-05-14T17:32:56.392Z,81.20
2023-05-14T17:35:43.864Z,83.70
2023-05-14T17:38:29.797Z,81.80
2023-05-14T17:41:15.210Z,85.50
2023-05-14T17:44:00.653Z,86.80
2023-05-14T17:46:46.447Z,87.40
2023-05-14T17:49:31.705Z,88.10
2023-05-14T17:52:17.453Z,88.10
2023-05-14T17:55:03.110Z,88.60
2023-05-14T17:57:48.619Z,90.10
2023-05-14T18:00:34.334Z,90.00
2023-05-14T18:03:20.541Z,90.40
2023-05-14T18:06:06.219Z,90.20
2023-05-14T18:08:51.570Z,90.60
2023-05-14T18:11:36.906Z,91.30
2023-05-14T18:14:22.663Z,91.50
2023-05-14T18:17:08.417Z,91.50
2023-05-14T18:19:54.148Z,91.10
2023-05-14T18:22:39.778Z,90.60
2023-05-14T18:25:25.893Z,90.50
2023-05-14T18:28:11.664Z,90.00
2023-05-14T18:30:57.149Z,90.80
2023-05-14T18:33:43.093Z,89.90
2023-05-14T18:36:28.578Z,91.10
2023-05-14T18:39:14.218Z,92.80
2023-05-14T18:41:59.974Z,94.60
2023-05-14T18:44:45.358Z,95.80
2023-05-14T18:47:30.838Z,96.40
2023-05-14T18:50:16.387Z,98.20
2023-05-14T18:53:02.272Z,97.70
2023-05-14T18:55:47.759Z,97.00
2023-05-14T18:58:33.618Z,97.00
2023-05-14T19:01:18.893Z,97.20
2023-05-14T19:04:06.161Z,98.00
2023-05-14T19:06:52.235Z,96.50
2023-05-14T19:09:37.740Z,97.60
2023-05-14T19:12:23.660Z,97.00
2023-05-14T19:15:09.316Z,97.60
2023-05-14T19:17:54.703Z,98.20
2023-05-14T19:20:40.426Z,98.20
2023-05-14T19:23:26.111Z,98.60
2023-05-14T19:26:11.570Z,98.40
2023-05-14T19:28:58.712Z,99.30
2023-05-14T19:31:44.436Z,99.90
2023-05-14T19:34:30.441Z,99.90
2023-05-14T19:37:16.181Z,99.90
2023-05-14T19:40:01.850Z,99.90
2023-05-14T19:42:47.603Z,99.90
2023-05-14T19:45:38.853Z,99.90
2023-05-14T19:48:24.610Z,99.90
2023-05-14T19:51:10.978Z,99.90
2023-05-14T19:53:56.310Z,99.90
2023-05-14T19:56:42.104Z,99.90
2023-05-14T19:59:29.482Z,99.90
2023-05-14T20:02:18.247Z,99.90
2023-05-14T20:05:06.802Z,99.90
2023-05-14T20:07:54.550Z,99.90
2023-05-14T20:10:39.990Z,99.90
2023-05-14T20:13:25.535Z,99.90
2023-05-14T20:16:11.469Z,99.90
2023-05-14T20:18:57.276Z,99.90
2023-05-14T20:21:42.917Z,99.90
2023-05-14T20:24:28.585Z,99.90
2023-05-14T20:27:14.007Z,99.90
2023-05-14T20:29:59.651Z,99.90
2023-05-14T20:32:45.648Z,99.90
2023-05-14T20:35:31.174Z,99.90
2023-05-14T20:38:18.463Z,99.90
2023-05-14T20:41:04.028Z,99.90
2023-05-14T20:43:49.571Z,99.90
2023-05-14T20:46:35.333Z,99.90
2023-05-14T20:49:21.126Z,99.90
2023-05-14T20:52:06.583Z,99.90
2023-05-14T20:54:52.128Z,99.90
2023-05-14T20:57:37.402Z,99.90
2023-05-14T21:00:23.241Z,99.90
2023-05-14T21:03:08.823Z,99.90
2023-05-14T21:05:56.050Z,99.90
2023-05-14T21:08:41.551Z,99.90
2023-05-14T21:11:27.187Z,99.90
2023-05-14T21:14:12.864Z,99.90
2023-05-14T21:16:58.543Z,99.90
2023-05-14T21:19:44.243Z,99.90
2023-05-14T21:22:29.969Z,99.90
2023-05-14T21:25:15.886Z,99.90
2023-05-14T21:28:01.334Z,99.90
2023-05-14T21:30:47.139Z,99.90
2023-05-14T21:33:32.997Z,99.90
2023-05-14T21:36:18.458Z,99.90
2023-05-14T21:39:04.204Z,99.90
2023-05-14T21:41:49.999Z,99.90
2023-05-14T21:44:35.638Z,99.90
2023-05-14T21:47:21.293Z,99.90
2023-05-14T21:50:07.322Z,99.90
2023-05-14T21:52:52.978Z,99.90
2023-05-14T21:55:38.496Z,99.90
2023-05-14T21:58:24.151Z,99.90
2023-05-14T22:01:11.498Z,99.90
2023-05-14T22:03:57.976Z,99.90
2023-05-14T22:06:43.822Z,99.90
2023-05-14T22:09:30.420Z,99.90
2023-05-14T22:12:16.053Z,99.90
2023-05-14T22:15:01.815Z,99.90
2023-05-14T22:17:47.650Z,99.90
2023-05-14T22:20:33.058Z,99.90
2023-05-14T22:23:18.652Z,99.90
2023-05-14T22:26:04.669Z,99.90
2023-05-14T22:28:50.568Z,99.90
2023-05-14T22:31:35.993Z,99.90
2023-05-14T22:34:21.659Z,99.90
2023-05-14T22:37:07.927Z,99.90
2023-05-14T22:39:53.269Z,99.90
2023-05-14T22:42:39.059Z,99.90
2023-05-14T22:45:24.651Z,99.90
2023-05-14T22:48:10.109Z,99.90
2023-05-14T22:50:55.861Z,99.90
2023-05-14T22:53:41.526Z,99.90
2023-05-14T22:56:26.996Z,99.90
2023-05-14T22:59:12.777Z,99.90
2023-05-14T23:01:58.260Z,99.90
2023-05-14T23:04:43.956Z,99.90
2023-05-14T23:07:29.327Z,99.90
2023-05-14T23:10:15.109Z,99.90
2023-05-14T23:13:00.677Z,99.90
2023-05-14T23:15:46.326Z,99.90
2023-05-14T23:18:32.384Z,99.90
2023-05-14T23:21:18.332Z,99.90
2023-05-14T23:24:03.919Z,99.90
2023-05-14T23:26:49.452Z,99.90
2023-05-14T23:29:35.613Z,99.90
2023-05-14T23:32:21.363Z,99.90
2023-05-14T23:35:07.277Z,99.90
2023-05-14T23:37:52.671Z,99.90
2023-05-14T23:40:37.969Z,99.90
2023-05-14T23:43:23.789Z,99.90
2023-05-14T23:46:09.614Z,99.90
2023-05-14T23:48:57.125Z,99.90
2023-05-14T23:51:42.784Z,99.90
2023-05-14T23:54:28.608Z,99.90
2023-05-14T23:57:15.293Z,99.90
